createdAt,value
2023-03-26T00:01:50.910Z,26.40
2023-03-26T00:06:55.423Z,34.20
2023-03-26T00:11:57.812Z,40.63
2023-03-26T00:17:05.877Z,25.40
2023-03-26T00:22:14.808Z,19.95
2023-03-26T00:33:12.319Z,19.85
2023-03-26T00:38:17.515Z,32.97
2023-03-26T00:43:31.192Z,17.23
2023-03-26T00:48:45.551Z,25.65
2023-03-26T00:59:13.576Z,29.25
2023-03-26T01:04:37.747Z,36.10
2023-03-26T01:09:46.105Z,28.48
2023-03-26T01:14:54.600Z,52.10
2023-03-26T01:20:05.725Z,46.40
2023-03-26T01:25:09.660Z,29.17
2023-03-26T01:30:26.065Z,36.22
2023-03-26T01:36:11.626Z,32.83
2023-03-26T01:41:37.520Z,43.20
2023-03-26T01:46:40.977Z,22.73
2023-03-26T01:51:45.040Z,34.30
2023-03-26T01:57:00.596Z,46.65
2023-03-26T02:02:45.353Z,21.27
2023-03-26T02:08:09.443Z,20.40
2023-03-26T02:13:16.247Z,23.52
2023-03-26T02:18:25.373Z,15.40
2023-03-26T02:23:37.391Z,13.05
2023-03-26T02:28:49.674Z,19.80
2023-03-26T02:33:56.832Z,9.43
2023-03-26T02:39:01.476Z,17.50
2023-03-26T02:44:09.629Z,16.30
2023-03-26T02:49:30.905Z,25.13
2023-03-26T02:54:38.439Z,19.42
2023-03-26T02:59:53.024Z,13.80
2023-03-26T03:05:18.859Z,16.02
2023-03-26T03:10:33.122Z,10.85
2023-03-26T03:16:00.469Z,8.65
2023-03-26T03:21:29.239Z,13.77
2023-03-26T03:26:40.089Z,10.70
2023-03-26T04:08:13.456Z,20.23
2023-03-26T04:13:23.663Z,12.27
2023-03-26T04:19:03.233Z,12.98
2023-03-26T04:24:12.612Z,20.67
2023-03-26T04:29:45.018Z,19.17
2023-03-26T04:35:01.130Z,7.45
2023-03-26T04:40:14.038Z,10.30
2023-03-26T04:45:36.260Z,17.27
2023-03-26T04:50:39.406Z,20.48
2023-03-26T04:56:33.346Z,4.93
2023-03-26T05:02:03.296Z,9.20
2023-03-26T05:07:13.373Z,5.00
2023-03-26T05:12:26.742Z,6.32
2023-03-26T05:17:41.653Z,16.63
2023-03-26T05:22:54.671Z,30.20
2023-03-26T05:28:06.669Z,14.65
2023-03-26T05:33:27.263Z,12.63
2023-03-26T05:38:40.684Z,8.30
2023-03-26T05:43:49.006Z,5.00
2023-03-26T05:49:00.075Z,4.97
2023-03-26T05:54:06.680Z,8.48
2023-03-26T05:59:32.546Z,12.93
2023-03-26T06:05:13.858Z,13.40
2023-03-26T06:10:44.849Z,12.20
2023-03-26T06:15:47.365Z,11.45
2023-03-26T06:20:58.165Z,8.38
2023-03-26T06:26:16.948Z,6.25
2023-03-26T06:31:26.310Z,18.40
2023-03-26T06:36:37.365Z,16.20
2023-03-26T06:41:41.476Z,32.22
2023-03-26T06:46:56.362Z,7.10
2023-03-26T06:52:21.841Z,6.68
2023-03-26T06:57:57.304Z,9.80
2023-03-26T07:03:24.700Z,8.95
2023-03-26T07:08:50.435Z,14.45
2023-03-26T07:14:32.471Z,10.80
2023-03-26T07:20:01.639Z,11.98
2023-03-26T07:32:14.037Z,11.80
2023-03-26T07:38:31.630Z,13.82
2023-03-26T07:50:22.437Z,14.90
2023-03-26T07:56:03.374Z,16.00
2023-03-26T08:02:26.756Z,16.40
2023-03-26T08:09:01.441Z,19.63
2023-03-26T08:14:55.424Z,22.92
2023-03-26T08:20:44.629Z,18.42
2023-03-26T08:25:57.096Z,17.73
2023-03-26T08:31:04.844Z,10.15
2023-03-26T08:36:10.538Z,23.77
2023-03-26T08:41:31.769Z,16.40
2023-03-26T08:46:37.567Z,13.15
2023-03-26T08:58:09.553Z,24.13
2023-03-26T09:03:36.723Z,20.40
2023-03-26T09:08:53.671Z,14.95
2023-03-26T09:14:01.348Z,31.75
2023-03-26T09:19:13.617Z,25.73
2023-03-26T09:24:45.934Z,21.00
2023-03-26T09:30:07.117Z,21.02
2023-03-26T09:35:58.690Z,24.17
2023-03-26T09:55:59.425Z,10.32
2023-03-26T10:28:17.890Z,14.15
2023-03-26T10:34:06.638Z,14.45
2023-03-26T10:39:55.244Z,12.43
2023-03-26T10:45:13.504Z,16.25
2023-03-26T10:51:13.537Z,8.52
2023-03-26T10:56:23.073Z,14.30
2023-03-26T11:01:42.569Z,14.38
2023-03-26T11:07:09.657Z,9.93
2023-03-26T11:12:30.366Z,15.35
2023-03-26T11:17:57.313Z,7.38
2023-03-26T11:23:33.897Z,14.18
2023-03-26T11:29:31.638Z,3.85
2023-03-26T11:34:39.595Z,10.05
2023-03-26T11:39:56.566Z,4.78
2023-03-26T11:45:03.580Z,4.28
2023-03-26T11:50:16.073Z,2.38
2023-03-26T11:55:18.910Z,4.32
2023-03-26T12:00:23.837Z,2.83
2023-03-26T12:05:31.516Z,3.85
2023-03-26T12:10:43.059Z,15.85
2023-03-26T12:15:47.392Z,4.85
2023-03-26T12:21:01.680Z,9.52
2023-03-26T12:26:22.067Z,8.25
2023-03-26T12:31:26.692Z,14.07
2023-03-26T12:36:33.472Z,10.30
2023-03-26T12:44:41.739Z,9.15
2023-03-26T12:47:59.994Z,9.98
2023-03-26T12:58:13.762Z,5.72
2023-03-26T13:03:25.017Z,9.98
2023-03-26T13:08:55.453Z,12.07
2023-03-26T13:14:38.008Z,13.88
2023-03-26T13:20:01.849Z,8.00
2023-03-26T13:25:19.543Z,9.27
2023-03-26T13:30:44.865Z,6.97
2023-03-26T13:36:14.308Z,7.68
2023-03-26T13:41:40.295Z,7.75
2023-03-26T13:46:52.270Z,11.13
2023-03-26T13:52:02.398Z,9.38
2023-03-26T13:57:19.323Z,8.68
2023-03-26T14:02:43.952Z,6.53
2023-03-26T14:07:52.481Z,8.68
2023-03-26T14:13:13.843Z,15.30
2023-03-26T14:18:45.498Z,12.07
2023-03-26T14:24:09.676Z,9.65
2023-03-26T14:29:35.528Z,9.00
2023-03-26T14:35:12.315Z,9.95
2023-03-26T14:40:33.222Z,11.68
2023-03-26T14:46:13.011Z,12.65
2023-03-26T14:51:40.851Z,9.13
2023-03-26T15:03:27.562Z,13.32
2023-03-26T15:09:16.929Z,11.90
2023-03-26T15:14:38.370Z,12.90
2023-03-26T15:20:11.129Z,8.38
2023-03-26T15:25:36.485Z,10.10
2023-03-26T15:30:53.876Z,13.88
2023-03-26T15:36:22.738Z,19.77
2023-03-26T15:41:52.589Z,13.38
2023-03-26T15:47:22.904Z,22.00
2023-03-26T15:52:45.573Z,10.65
2023-03-26T15:58:28.783Z,16.95
2023-03-26T16:04:00.546Z,10.13
2023-03-26T16:09:29.142Z,10.00
2023-03-26T16:14:45.269Z,12.33
2023-03-26T16:20:46.768Z,12.55
2023-03-26T16:26:11.192Z,10.85
2023-03-26T16:31:37.009Z,10.35
2023-03-26T16:36:49.997Z,9.77
2023-03-26T16:42:06.573Z,17.27
2023-03-26T16:47:40.709Z,16.08
2023-03-26T16:52:58.791Z,6.80
2023-03-26T16:58:42.965Z,10.98
2023-03-26T17:03:56.482Z,10.63
2023-03-26T17:09:21.271Z,9.10
2023-03-26T17:15:06.032Z,11.95
2023-03-26T17:20:20.326Z,19.35
2023-03-26T17:25:36.642Z,19.08
2023-03-26T17:30:56.327Z,8.57
2023-03-26T17:36:32.228Z,9.95
2023-03-26T17:41:55.424Z,11.30
2023-03-26T17:47:00.042Z,22.08
2023-03-26T17:52:15.209Z,12.10
2023-03-26T17:57:22.640Z,6.53
2023-03-26T18:02:43.422Z,8.85
2023-03-26T18:08:23.112Z,7.00
2023-03-26T18:14:03.397Z,8.02
2023-03-26T18:19:27.093Z,8.18
2023-03-26T18:24:42.373Z,5.25
2023-03-26T18:30:01.995Z,14.68
2023-03-26T18:35:17.355Z,4.95
2023-03-26T18:40:24.079Z,4.13
2023-03-26T18:45:36.619Z,10.13
2023-03-26T18:50:44.687Z,4.35
2023-03-26T18:55:51.260Z,3.80
2023-03-26T19:01:25.014Z,5.47
2023-03-26T19:06:30.682Z,3.85
2023-03-26T19:11:43.841Z,3.95
2023-03-26T19:16:59.395Z,4.70
2023-03-26T19:22:07.756Z,8.55
2023-03-26T19:27:25.253Z,1.77
2023-03-26T19:32:35.209Z,1.45
2023-03-26T19:37:51.408Z,1.45
2023-03-26T19:42:53.656Z,3.80
2023-03-26T19:48:11.635Z,1.13
2023-03-26T19:53:33.454Z,8.77
2023-03-26T19:58:40.020Z,0.85
2023-03-26T20:03:46.412Z,3.28
2023-03-26T20:09:00.852Z,3.40
2023-03-26T20:14:17.922Z,3.63
2023-03-26T20:19:21.122Z,2.80
2023-03-26T20:24:25.063Z,1.10
2023-03-26T20:29:28.904Z,8.25
2023-03-26T20:34:32.408Z,4.82
2023-03-26T20:39:37.347Z,6.85
2023-03-26T20:44:42.119Z,3.13
2023-03-26T20:49:44.317Z,6.00
2023-03-26T20:54:47.667Z,7.25
2023-03-26T20:59:49.896Z,5.00
2023-03-26T21:04:53.955Z,9.18
2023-03-26T21:10:03.179Z,16.80
2023-03-26T21:15:13.487Z,24.42
2023-03-26T21:20:27.157Z,22.05
2023-03-26T21:26:22.700Z,8.40
2023-03-26T21:31:34.805Z,3.03
2023-03-26T21:36:38.206Z,5.63
2023-03-26T21:42:04.807Z,10.20
2023-03-26T21:47:09.955Z,7.82
2023-03-26T21:52:20.827Z,10.40
2023-03-26T21:58:01.342Z,6.50
2023-03-26T22:03:31.368Z,5.95
2023-03-26T22:08:40.595Z,5.00
2023-03-26T22:13:49.232Z,7.38
2023-03-26T22:18:54.165Z,7.47
2023-03-26T22:23:57.147Z,11.77
2023-03-26T22:28:59.505Z,9.00
2023-03-26T22:34:02.932Z,12.25
2023-03-26T22:39:08.049Z,5.28
2023-03-26T22:49:32.560Z,5.28
2023-03-26T22:55:00.289Z,3.45
2023-03-26T23:00:13.596Z,8.45
2023-03-26T23:05:20.509Z,9.68
2023-03-26T23:10:22.724Z,8.55
2023-03-26T23:15:26.011Z,10.25
2023-03-26T23:20:29.180Z,2.72
2023-03-26T23:25:33.357Z,6.88
2023-03-26T23:30:37.831Z,9.40
2023-03-26T23:35:44.442Z,10.25
2023-03-26T23:40:57.494Z,9.35
2023-03-26T23:46:00.462Z,10.43
2023-03-26T23:51:06.875Z,6.03
2023-03-26T23:56:13.673Z,9.15
